Time;durP1;ratioP1;P1;durP2;ratioP2;P2;SDS_P1;SDS_P2;PMS_P1;PMS_P2;Temp;Humidity;BMP_temperature;BMP_pressure;BME280_temperature;BME280_humidity;BME280_pressure;Samples;Min_cycle;Max_cycle;Signal;HPM_P1;HPM_P2
2021/08/03 00:01:51;;;;;;;24.20;11.63;;;;;;;19.65;77.08;98602.03;5094165;28;20052;-73
2021/08/03 00:04:20;;;;;;;21.35;10.55;;;;;;;19.62;76.91;98590.88;5092995;28;20562;-72
2021/08/03 00:06:48;;;;;;;19.40;10.73;;;;;;;19.55;76.82;98597.06;5093828;28;20101;-72
2021/08/03 00:09:16;;;;;;;21.15;9.85;;;;;;;19.52;77.09;98610.84;5075919;28;20040;-75
2021/08/03 00:11:44;;;;;;;19.13;10.55;;;;;;;19.47;77.09;98604.47;5075228;28;20055;-72
2021/08/03 00:14:10;;;;;;;19.88;10.32;;;;;;;19.44;77.16;98616.41;5093712;28;20404;-75
2021/08/03 00:16:38;;;;;;;25.55;10.20;;;;;;;19.39;77.33;98613.53;5075755;28;20044;-72
2021/08/03 00:19:04;;;;;;;;;;;;;;;19.34;77.45;98621.31;5094807;28;20036;-73
2021/08/03 00:21:30;;;;;;;18.52;9.05;;;;;;;19.30;77.42;98620.06;5093585;28;19923;-71
2021/08/03 00:23:56;;;;;;;20.17;9.05;;;;;;;19.24;77.47;98622.53;5093655;28;20068;-74
2021/08/03 00:26:22;;;;;;;20.23;10.15;;;;;;;19.23;77.64;98628.94;5075400;28;20040;-72
2021/08/03 00:28:51;;;;;;;16.48;8.93;;;;;;;19.17;77.65;98627.03;5093587;28;20511;-72
2021/08/03 00:31:22;;;;;;;18.45;8.70;;;;;;;19.13;77.94;98631.16;5075403;28;20048;-72
2021/08/03 00:33:50;;;;;;;16.52;8.95;;;;;;;19.12;77.88;98639.41;5093477;28;20048;-72
2021/08/03 00:36:18;;;;;;;17.50;8.90;;;;;;;19.10;78.14;98644.13;5093473;28;20409;-72
2021/08/03 00:38:57;;;;;;;16.40;9.15;;;;;;;19.07;78.21;98642.69;5076852;28;20055;-74
2021/08/03 00:41:38;;;;;;;18.25;9.38;;;;;;;19.03;78.56;98641.44;5093209;28;20040;-72
2021/08/03 00:44:05;;;;;;;20.95;9.50;;;;;;;18.97;78.33;98642.22;5058558;28;20552;-72
2021/08/03 00:46:31;;;;;;;20.92;11.32;;;;;;;18.94;78.47;98639.94;5092872;28;20067;-73
2021/08/03 00:48:57;;;;;;;18.42;9.90;;;;;;;18.92;78.52;98643.63;5074980;28;20123;-71
2021/08/03 00:51:24;;;;;;;17.85;8.57;;;;;;;18.88;78.46;98645.03;5074846;28;20583;-74
2021/08/03 00:53:52;;;;;;;24.83;9.45;;;;;;;18.86;78.70;98644.38;5074535;28;20493;-72
2021/08/03 00:56:18;;;;;;;21.52;10.10;;;;;;;18.81;78.99;98646.84;5074936;28;20044;-74
2021/08/03 00:58:46;;;;;;;;;;;;;;;18.78;78.91;98649.06;5074893;28;20101;-72
2021/08/03 01:01:12;;;;;;;20.13;10.10;;;;;;;18.71;79.16;98649.88;5074848;28;19916;-72
2021/08/03 01:03:39;;;;;;;18.63;9.30;;;;;;;18.65;79.57;98655.19;5074486;28;20044;-75
2021/08/03 01:06:08;;;;;;;19.55;8.88;;;;;;;18.62;79.40;98656.41;5092799;28;20515;-79
2021/08/03 01:08:56;;;;;;;19.55;9.02;;;;;;;18.56;79.80;98655.31;5074399;28;20418;-73
2021/08/03 01:11:31;;;;;;;17.92;8.27;;;;;;;18.54;79.69;98657.41;5074403;28;20056;-75
2021/08/03 01:14:18;;;;;;;19.67;8.73;;;;;;;18.50;79.71;98658.78;5092365;28;20500;-74
2021/08/03 01:16:55;;;;;;;17.55;8.90;;;;;;;18.46;79.79;98670.91;5074369;28;20040;-71
2021/08/03 01:19:39;;;;;;;22.38;9.32;;;;;;;18.43;79.87;98676.69;5074552;28;20069;-71
2021/08/03 01:23:01;;;;;;;17.50;8.85;;;;;;;18.40;80.06;98674.38;5077187;28;20032;-71
2021/08/03 01:26:06;;;;;;;17.73;8.20;;;;;;;18.35;80.21;98676.81;5092396;28;20079;-73
2021/08/03 01:28:39;;;;;;;20.40;9.02;;;;;;;18.30;80.49;98679.25;5091873;28;20078;-72
2021/08/03 01:31:11;;;;;;;18.55;9.02;;;;;;;18.27;80.36;98681.28;5074376;28;20130;-73
2021/08/03 01:33:41;;;;;;;18.85;8.57;;;;;;;18.24;80.54;98686.19;5074285;28;20044;-71
2021/08/03 01:36:08;;;;;;;17.63;9.10;;;;;;;18.21;80.59;98675.88;5074240;28;20051;-69
2021/08/03 01:38:38;;;;;;;20.38;9.20;;;;;;;18.16;80.80;98689.81;5091865;28;20040;-69
2021/08/03 01:41:06;;;;;;;21.02;9.57;;;;;;;18.14;81.05;98697.19;5057530;28;20503;-72
2021/08/03 01:43:35;;;;;;;17.20;7.93;;;;;;;18.12;80.98;98691.22;5091616;28;20036;-71
2021/08/03 01:46:04;;;;;;;17.65;8.38;;;;;;;18.11;80.88;98693.06;5073852;28;20126;-71
2021/08/03 01:48:33;;;;;;;19.23;8.73;;;;;;;18.07;80.69;98697.16;5073681;28;20044;-70
2021/08/03 01:51:00;;;;;;;19.00;8.77;;;;;;;18.07;80.93;98702.50;5092067;28;20108;-74
2021/08/03 01:53:30;;;;;;;17.80;9.05;;;;;;;18.05;80.97;98704.53;5091428;28;20491;-74
2021/08/03 01:55:59;;;;;;;16.27;8.20;;;;;;;18.03;80.75;98700.41;5074076;28;20044;-71
2021/08/03 01:58:28;;;;;;;19.50;9.13;;;;;;;18.01;81.01;98697.91;5057355;28;20585;-71
2021/08/03 02:01:02;;;;;;;15.30;8.00;;;;;;;17.97;80.97;98698.47;5089037;28;20040;-73
2021/08/03 02:03:49;;;;;;;17.67;8.65;;;;;;;17.98;81.14;98697.47;5072743;28;20101;-73
2021/08/03 02:06:17;;;;;;;15.60;8.10;;;;;;;17.94;81.19;98702.38;5073196;28;20047;-73
2021/08/03 02:08:47;;;;;;;15.25;8.02;;;;;;;17.94;81.17;98700.53;5057207;28;20043;-73
2021/08/03 02:11:16;;;;;;;19.98;8.88;;;;;;;17.93;81.06;98712.22;5073421;28;20113;-73
2021/08/03 02:13:47;;;;;;;22.88;8.88;;;;;;;17.93;81.14;98720.25;5073677;28;20040;-72
2021/08/03 02:16:24;;;;;;;21.55;8.77;;;;;;;17.91;81.27;98724.94;5073836;28;20113;-73
2021/08/03 02:18:55;;;;;;;22.48;9.20;;;;;;;17.89;81.24;98731.50;5074005;28;20048;-72
2021/08/03 02:21:25;;;;;;;22.00;9.35;;;;;;;17.91;81.35;98732.97;5073853;28;20097;-72
2021/08/03 02:23:52;;;;;;;21.75;8.70;;;;;;;17.88;81.41;98730.69;5073498;28;20067;-71
2021/08/03 02:26:18;;;;;;;27.42;11.65;;;;;;;17.87;81.01;98734.38;5073675;28;20047;-71
2021/08/03 02:28:45;;;;;;;26.92;10.27;;;;;;;17.86;81.04;98730.03;5058851;28;20165;-73
2021/08/03 02:31:32;;;;;;;24.08;10.52;;;;;;;17.89;81.18;98729.66;5095461;28;20044;-72
2021/08/03 02:34:05;;;;;;;22.88;9.50;;;;;;;17.90;81.08;98728.63;5095858;28;20080;-72
2021/08/03 02:36:39;;;;;;;15.73;8.10;;;;;;;17.89;81.08;98737.66;5060915;28;20044;-75
2021/08/03 02:39:06;;;;;;;18.33;8.57;;;;;;;17.88;81.07;98746.75;5061369;28;20418;-73
2021/08/03 02:41:33;;;;;;;18.73;9.10;;;;;;;17.90;81.17;98743.88;5076883;28;20052;-72
2021/08/03 02:44:03;;;;;;;23.60;8.75;;;;;;;17.91;81.06;98749.03;5078008;28;20538;-72
2021/08/03 02:46:29;;;;;;;19.77;8.38;;;;;;;17.94;80.86;98748.69;5077415;28;20122;-73
2021/08/03 02:49:04;;;;;;;17.35;8.10;;;;;;;17.96;80.81;98748.50;5077101;28;20055;-74
2021/08/03 02:51:33;;;;;;;15.65;8.70;;;;;;;17.94;80.84;98762.06;5078522;28;20044;-72
2021/08/03 02:54:03;;;;;;;19.88;8.52;;;;;;;17.94;80.85;98762.06;5095114;28;20044;-72
2021/08/03 02:56:30;;;;;;;19.67;9.18;;;;;;;18.00;80.63;98762.31;5076832;28;20584;-72
2021/08/03 02:59:08;;;;;;;17.38;8.68;;;;;;;18.02;80.42;98760.28;5060549;28;20052;-75
2021/08/03 03:01:37;;;;;;;17.25;8.63;;;;;;;18.01;80.41;98761.31;5077239;28;20052;-72
2021/08/03 03:04:29;;;;;;;17.17;8.18;;;;;;;18.03;80.38;98764.59;5076994;28;20044;-73
2021/08/03 03:06:59;;;;;;;17.70;8.27;;;;;;;18.02;80.32;98770.97;5060664;28;20044;-73
2021/08/03 03:09:29;;;;;;;20.08;8.93;;;;;;;18.04;80.35;98779.66;5060572;28;20401;-74
2021/08/03 03:11:57;;;;;;;20.23;9.10;;;;;;;18.01;80.32;98780.03;5076726;28;20051;-72
2021/08/03 03:14:25;;;;;;;21.67;8.40;;;;;;;18.03;80.17;98786.00;5094547;28;20039;-73
2021/08/03 03:16:54;;;;;;;21.63;8.77;;;;;;;18.01;80.42;98788.88;5059863;28;20492;-77
2021/08/03 03:19:20;;;;;;;14.95;7.55;;;;;;;18.07;80.26;98793.50;5059893;28;20039;-73
2021/08/03 03:21:47;;;;;;;14.80;7.47;;;;;;;18.10;79.72;98786.91;5076135;28;20044;-75
2021/08/03 03:24:14;;;;;;;20.25;8.45;;;;;;;18.14;79.74;98793.53;5059869;28;20036;-73
2021/08/03 03:26:42;;;;;;;21.10;7.80;;;;;;;18.17;79.64;98798.53;5094790;28;20040;-76
2021/08/03 03:29:13;;;;;;;19.50;7.45;;;;;;;18.22;79.44;98798.78;5061382;28;20109;-73
2021/08/03 03:31:40;;;;;;;;;;;;;;;18.24;79.17;98802.13;5077563;28;20560;-76
2021/08/03 03:34:08;;;;;;;17.88;7.47;;;;;;;18.30;79.19;98813.91;5059385;28;19927;-74
2021/08/03 03:36:35;;;;;;;14.10;7.43;;;;;;;18.39;78.91;98817.28;5076102;28;20063;-71
2021/08/03 03:39:04;;;;;;;14.05;7.05;;;;;;;18.42;78.39;98828.44;5059546;28;20043;-75
2021/08/03 03:41:33;;;;;;;17.13;7.20;;;;;;;18.46;77.88;98834.25;5076608;28;20097;-71
2021/08/03 03:44:00;;;;;;;15.48;6.85;;;;;;;18.53;77.61;98843.19;5059447;28;20185;-72
2021/08/03 03:46:40;;;;;;;12.52;6.57;;;;;;;18.64;77.06;98843.69;5059913;28;20040;-71
2021/08/03 03:49:11;;;;;;;10.90;5.25;;;;;;;18.82;76.22;98854.78;5059730;28;20044;-75
2021/08/03 03:51:42;;;;;;;15.07;6.85;;;;;;;19.00;75.46;98850.84;5076217;28;20086;-74
2021/08/03 03:54:18;;;;;;;11.30;5.70;;;;;;;19.15;74.83;98845.41;5076089;28;20404;-72
2021/08/03 03:56:55;;;;;;;10.18;5.53;;;;;;;19.32;74.24;98843.25;5058954;28;20416;-73
2021/08/03 03:59:21;;;;;;;9.82;5.70;;;;;;;19.39;73.65;98839.59;5059541;28;20500;-73
2021/08/03 04:01:53;;;;;;;13.65;5.50;;;;;;;19.37;73.06;98843.50;5075328;28;20058;-75
2021/08/03 04:04:19;;;;;;;10.98;5.45;;;;;;;19.48;72.79;98847.50;5076222;28;20058;-74
2021/08/03 04:06:45;;;;;;;11.75;5.43;;;;;;;19.59;72.15;98854.13;5075045;28;20116;-72
2021/08/03 04:09:22;;;;;;;13.98;6.45;;;;;;;19.94;71.18;98854.13;5075741;28;20503;-71
2021/08/03 04:11:51;;;;;;;9.82;4.88;;;;;;;20.41;70.01;98857.84;5074487;28;20051;-73
2021/08/03 04:14:40;;;;;;;13.80;5.05;;;;;;;21.09;67.67;98864.16;5075920;28;20439;-73
2021/08/03 04:17:09;;;;;;;10.02;4.15;;;;;;;21.26;65.93;98875.31;5075819;28;20040;-73
2021/08/03 04:19:40;;;;;;;11.80;4.63;;;;;;;21.32;64.95;98874.47;5075102;28;20433;-73
2021/08/03 04:22:06;;;;;;;13.57;5.00;;;;;;;21.46;64.83;98878.00;5093291;28;20048;-73
2021/08/03 04:24:32;;;;;;;8.32;4.20;;;;;;;21.58;63.97;98870.13;5093403;28;20040;-73
2021/08/03 04:26:57;;;;;;;7.88;4.25;;;;;;;22.58;61.41;98877.00;5092998;28;20051;-73
2021/08/03 04:29:23;;;;;;;14.57;4.20;;;;;;;23.81;57.44;98868.53;5093187;28;20128;-75
2021/08/03 04:31:49;;;;;;;33.67;13.38;;;;;;;24.12;55.17;98872.97;5092175;28;20040;-73
2021/08/03 04:34:15;;;;;;;8.45;3.97;;;;;;;24.51;54.80;98880.78;5092757;28;20078;-73
2021/08/03 04:36:40;;;;;;;6.43;3.40;;;;;;;26.17;49.55;98878.25;5095966;28;20085;-72
2021/08/03 04:39:10;;;;;;;8.25;3.40;;;;;;;27.10;47.42;98886.19;5102541;28;20046;-72
2021/08/03 04:41:40;;;;;;;8.40;3.45;;;;;;;26.03;49.27;98898.50;5103237;28;20077;-74
2021/08/03 04:44:06;;;;;;;9.82;3.30;;;;;;;24.65;52.28;98894.97;5092753;28;20044;-75
2021/08/03 04:46:33;;;;;;;12.48;3.70;;;;;;;23.57;54.99;98900.78;5100178;28;20477;-74
2021/08/03 04:48:59;;;;;;;8.85;3.22;;;;;;;23.62;55.63;98906.31;5102515;28;20043;-72
2021/08/03 04:51:25;;;;;;;5.55;2.90;;;;;;;23.86;54.50;98904.63;5102637;28;20047;-77
2021/08/03 04:53:50;;;;;;;9.63;3.03;;;;;;;24.35;53.34;98895.75;5093372;28;20146;-77
2021/08/03 04:56:16;;;;;;;9.77;2.80;;;;;;;24.85;51.99;98900.13;5091933;28;20078;-72
2021/08/03 04:58:42;;;;;;;5.10;2.67;;;;;;;25.72;50.15;98908.69;5092127;28;20079;-76
2021/08/03 05:01:08;;;;;;;14.60;3.17;;;;;;;26.31;48.57;98900.47;5092108;28;20040;-74
2021/08/03 05:03:34;;;;;;;7.82;3.35;;;;;;;26.82;45.93;98892.50;5092350;28;20365;-78
2021/08/03 05:06:00;;;;;;;4.68;2.60;;;;;;;27.57;45.02;98892.34;5091487;28;20063;-74
2021/08/03 05:08:26;;;;;;;8.38;3.30;;;;;;;28.64;41.88;98891.25;5073100;28;20052;-74
2021/08/03 05:10:53;;;;;;;5.28;1.98;;;;;;;29.31;40.48;98897.31;5091674;28;20424;-74
2021/08/03 05:13:18;;;;;;;6.03;2.60;;;;;;;28.76;40.09;98899.28;5092467;28;20055;-76
2021/08/03 05:15:44;;;;;;;6.00;1.92;;;;;;;29.16;40.16;98906.97;5092705;28;20047;-78
2021/08/03 05:18:10;;;;;;;12.07;8.00;;;;;;;29.48;39.12;98917.03;5092855;28;20477;-75
2021/08/03 05:20:36;;;;;;;6.38;1.83;;;;;;;29.13;39.66;98915.66;5092379;28;20063;-73
2021/08/03 05:23:02;;;;;;;3.63;1.73;;;;;;;28.60;40.85;98922.75;5092336;28;20050;-72
2021/08/03 05:25:28;;;;;;;6.65;2.00;;;;;;;28.54;40.91;98914.53;5092360;28;20036;-76
2021/08/03 05:27:53;;;;;;;7.65;2.28;;;;;;;27.82;41.87;98919.06;5092537;28;20400;-72
2021/08/03 05:30:19;;;;;;;5.63;1.90;;;;;;;27.38;43.32;98927.09;5092557;28;20043;-76
2021/08/03 05:32:45;;;;;;;7.85;2.13;;;;;;;27.04;44.47;98929.78;5091765;28;20075;-74
2021/08/03 05:35:11;;;;;;;5.80;2.85;;;;;;;26.30;45.19;98928.66;5074229;28;20040;-75
2021/08/03 05:37:39;;;;;;;5.97;2.33;;;;;;;26.68;44.81;98926.38;5092149;28;20055;-73
2021/08/03 05:40:09;;;;;;;5.85;1.80;;;;;;;26.95;44.63;98927.47;5092285;28;20048;-72
2021/08/03 05:42:36;;;;;;;8.68;2.38;;;;;;;26.88;44.28;98928.69;5092345;28;20040;-74
2021/08/03 05:45:02;;;;;;;;;;;;;;;26.71;44.68;98931.34;5092984;28;20497;-76
2021/08/03 05:47:29;;;;;;;10.23;3.13;;;;;;;26.54;45.11;98921.25;5092106;28;19967;-77
2021/08/03 05:49:55;;;;;;;7.47;2.15;;;;;;;26.93;44.64;98924.19;5091502;28;20044;-80
2021/08/03 05:52:20;;;;;;;4.97;2.78;;;;;;;27.34;43.06;98929.47;5092020;28;20173;-75
2021/08/03 05:54:46;;;;;;;5.18;2.15;;;;;;;28.06;41.74;98927.00;5091694;28;20048;-77
2021/08/03 05:57:12;;;;;;;6.20;2.42;;;;;;;28.01;41.92;98916.03;5090270;28;20127;-73
2021/08/03 05:59:38;;;;;;;3.83;2.42;;;;;;;27.48;42.29;98924.56;5092111;28;20067;-75
2021/08/03 06:02:04;;;;;;;12.10;2.30;;;;;;;27.20;43.16;98923.53;5091782;28;20074;-76
2021/08/03 06:04:29;;;;;;;5.75;2.50;;;;;;;27.16;43.23;98930.53;5096385;28;20066;-76
2021/08/03 06:06:56;;;;;;;6.18;2.53;;;;;;;26.84;44.07;98931.06;5096108;28;20036;-73
2021/08/03 06:09:24;;;;;;;6.35;3.58;;;;;;;26.99;43.67;98948.69;5078481;28;20046;-74
2021/08/03 06:11:51;;;;;;;9.45;2.58;;;;;;;27.03;44.01;98953.38;5095708;28;20477;-75
2021/08/03 06:14:39;;;;;;;5.22;1.92;;;;;;;27.02;43.91;98959.88;5092206;28;20036;-76
2021/08/03 06:17:08;;;;;;;6.68;2.10;;;;;;;26.52;44.06;98966.78;5105240;28;20441;-76
2021/08/03 06:19:54;;;;;;;9.57;2.28;;;;;;;26.09;45.77;98976.19;5074638;28;20059;-75
2021/08/03 06:22:20;;;;;;;8.77;3.20;;;;;;;25.79;46.29;98974.41;5082603;28;20052;-78
2021/08/03 06:24:50;;;;;;;4.03;2.25;;;;;;;25.77;46.67;98974.66;5103098;28;20426;-77
2021/08/03 06:27:18;;;;;;;7.47;2.45;;;;;;;25.82;46.67;98979.34;5105039;28;20047;-72
2021/08/03 06:29:45;;;;;;;9.30;2.58;;;;;;;25.64;47.03;98989.22;5093894;28;20048;-73
2021/08/03 06:32:12;;;;;;;3.38;2.42;;;;;;;25.04;47.71;98982.84;5094393;28;20036;-74
2021/08/03 06:34:39;;;;;;;13.20;2.70;;;;;;;24.85;48.69;98982.06;5094910;28;20070;-75
2021/08/03 06:37:06;;;;;;;5.53;2.88;;;;;;;24.54;49.25;98981.19;5076544;28;20036;-73
2021/08/03 06:39:32;;;;;;;7.45;2.38;;;;;;;24.67;49.16;98985.66;5095160;28;20094;-75
2021/08/03 06:42:35;;;;;;;6.93;2.35;;;;;;;24.63;48.82;98989.00;5094577;28;20040;-73
2021/08/03 06:45:23;;;;;;;5.13;2.20;;;;;;;24.55;48.89;98993.66;5076580;28;20063;-73
2021/08/03 06:47:57;;;;;;;12.30;5.40;;;;;;;24.24;49.42;98991.94;5077067;28;20040;-80
2021/08/03 06:50:26;;;;;;;5.18;2.25;;;;;;;23.92;48.71;98999.34;5095166;28;20565;-74
2021/08/03 06:52:52;;;;;;;10.43;2.28;;;;;;;23.69;48.50;98998.88;5095454;28;20066;-81
2021/08/03 06:55:31;;;;;;;6.88;1.75;;;;;;;23.57;49.28;99008.75;5095078;28;20494;-76
2021/08/03 06:58:04;;;;;;;5.00;2.05;;;;;;;23.16;50.63;99012.78;5095675;28;20054;-76
2021/08/03 07:00:37;;;;;;;6.55;2.10;;;;;;;22.74;52.07;99011.31;5077132;28;20048;-75
2021/08/03 07:03:05;;;;;;;6.43;2.00;;;;;;;22.80;52.12;99020.41;5095409;28;20058;-74
2021/08/03 07:05:32;;;;;;;8.32;1.98;;;;;;;23.04;52.03;99009.91;5095319;28;20139;-75
2021/08/03 07:07:59;;;;;;;6.90;2.10;;;;;;;23.36;51.07;99005.38;5076731;28;20126;-75
2021/08/03 07:10:25;;;;;;;4.40;2.00;;;;;;;23.53;50.74;99010.25;5095247;28;20169;-76
2021/08/03 07:12:54;;;;;;;3.47;2.33;;;;;;;23.69;50.46;99015.09;5076420;28;20481;-73
2021/08/03 07:15:22;;;;;;;7.88;2.95;;;;;;;23.40;51.39;99020.09;5094613;28;20050;-76
2021/08/03 07:17:48;;;;;;;6.10;3.90;;;;;;;23.07;52.85;99036.47;5076955;28;20040;-77
2021/08/03 07:20:15;;;;;;;7.47;2.70;;;;;;;22.90;53.29;99034.28;5095093;28;20485;-74
2021/08/03 07:22:41;;;;;;;6.53;2.40;;;;;;;22.74;53.44;99038.28;5095346;28;20414;-75
2021/08/03 07:25:08;;;;;;;5.43;2.60;;;;;;;22.74;53.92;99032.03;5095148;28;20097;-77
2021/08/03 07:27:34;;;;;;;3.78;2.40;;;;;;;22.94;52.70;99027.38;5095266;28;20527;-74
2021/08/03 07:30:00;;;;;;;12.02;3.20;;;;;;;23.52;51.64;99032.88;5095126;28;20126;-75
2021/08/03 07:32:26;;;;;;;9.35;3.42;;;;;;;24.95;48.22;99030.22;5094510;28;20036;-78
2021/08/03 07:34:52;;;;;;;5.80;2.90;;;;;;;25.93;45.89;99035.44;5094583;28;20048;-75
2021/08/03 07:37:18;;;;;;;5.50;3.42;;;;;;;27.45;43.54;99022.81;5094731;28;20089;-75
2021/08/03 07:39:43;;;;;;;23.30;10.27;;;;;;;29.72;38.33;99025.72;5094397;28;20040;-77
2021/08/03 07:42:10;;;;;;;7.23;2.93;;;;;;;30.82;34.81;99024.16;5094324;28;20097;-77
2021/08/03 07:44:36;;;;;;;6.10;3.10;;;;;;;31.20;33.36;99020.44;5076673;28;20052;-77
2021/08/03 07:47:04;;;;;;;8.80;2.40;;;;;;;31.41;32.69;99016.63;5094079;28;20040;-76
2021/08/03 07:49:29;;;;;;;2.92;1.95;;;;;;;32.47;30.78;99017.06;5094335;28;20039;-75
2021/08/03 07:51:57;;;;;;;5.13;2.20;;;;;;;31.69;31.74;99017.22;5093959;28;20605;-79
2021/08/03 07:54:23;;;;;;;4.20;1.73;;;;;;;32.15;30.19;99023.69;5094044;28;20773;-75
2021/08/03 07:56:50;;;;;;;2.92;1.20;;;;;;;30.96;30.66;99031.84;5093804;28;20564;-76
2021/08/03 07:59:16;;;;;;;3.80;1.48;;;;;;;31.58;30.60;99015.56;5094324;28;20047;-75
2021/08/03 08:01:42;;;;;;;3.67;2.00;;;;;;;31.49;31.25;99017.19;5094335;28;20052;-79
2021/08/03 08:04:08;;;;;;;3.33;2.10;;;;;;;32.90;28.06;99007.28;5094183;28;20048;-76
2021/08/03 08:06:33;;;;;;;9.87;2.90;;;;;;;34.40;26.16;99002.50;5075736;28;20406;-75
2021/08/03 08:08:59;;;;;;;3.93;1.97;;;;;;;34.25;25.75;99007.00;5093395;28;20043;-75
2021/08/03 08:11:25;;;;;;;6.18;2.17;;;;;;;34.17;25.86;99013.13;5093357;28;20409;-77
2021/08/03 08:13:51;;;;;;;5.63;2.17;;;;;;;31.39;29.76;99024.31;5093848;28;20058;-77
2021/08/03 08:16:17;;;;;;;2.87;1.90;;;;;;;29.98;32.29;99018.56;5094205;28;20036;-75
2021/08/03 08:18:42;;;;;;;6.70;2.70;;;;;;;28.58;35.31;99027.22;5094149;28;20126;-76
2021/08/03 08:21:08;;;;;;;6.60;3.17;;;;;;;28.45;35.25;99024.88;5093785;28;20048;-77
2021/08/03 08:23:34;;;;;;;6.40;3.88;;;;;;;30.00;32.84;99021.00;5093855;28;20066;-76
2021/08/03 08:26:03;;;;;;;6.40;3.33;;;;;;;32.33;29.40;99012.19;5092448;28;20044;-77
2021/08/03 08:28:29;;;;;;;2.92;1.55;;;;;;;33.50;27.57;99005.53;5093659;28;20047;-77
2021/08/03 08:30:55;;;;;;;24.83;15.83;;;;;;;32.94;27.91;99024.00;5075522;28;20385;-81
2021/08/03 08:33:21;;;;;;;12.32;4.90;;;;;;;33.56;27.07;99015.38;5093657;28;20044;-79
2021/08/03 08:35:47;;;;;;;8.77;3.60;;;;;;;32.03;28.79;99015.81;5093409;28;20035;-79
2021/08/03 08:38:13;;;;;;;9.03;4.60;;;;;;;30.61;30.64;99025.19;5093142;28;20627;-75
2021/08/03 08:40:40;;;;;;;15.48;9.45;;;;;;;31.36;30.29;99008.44;5093662;28;20640;-80
2021/08/03 08:43:06;;;;;;;11.90;5.78;;;;;;;32.23;28.14;99014.97;5093267;28;20055;-74
2021/08/03 08:45:32;;;;;;;4.88;1.42;;;;;;;32.73;26.62;99007.63;5093154;28;20040;-76
2021/08/03 08:47:58;;;;;;;11.37;5.53;;;;;;;31.13;28.75;99016.06;5092987;28;20044;-74
2021/08/03 08:50:27;;;;;;;15.95;6.03;;;;;;;29.85;30.83;99017.06;5092769;28;20048;-74
2021/08/03 08:52:54;;;;;;;7.25;1.95;;;;;;;28.31;33.94;99029.03;5092965;28;20101;-72
2021/08/03 08:55:22;;;;;;;5.57;3.45;;;;;;;28.93;33.74;99035.28;5092806;28;20044;-72
2021/08/03 08:57:50;;;;;;;9.27;3.50;;;;;;;30.08;32.86;99028.69;5093008;28;20032;-74
2021/08/03 09:00:16;;;;;;;2.88;1.50;;;;;;;29.33;33.19;99034.06;5092798;28;20123;-78
2021/08/03 09:02:44;;;;;;;4.03;1.85;;;;;;;28.70;34.09;99029.84;5093064;28;20127;-73
2021/08/03 09:05:14;;;;;;;5.28;2.03;;;;;;;28.25;35.50;99042.56;5092689;28;20549;-72
2021/08/03 09:07:51;;;;;;;4.72;2.15;;;;;;;27.84;36.25;99041.09;5092534;28;20449;-77
2021/08/03 09:10:39;;;;;;;5.60;1.10;;;;;;;28.24;35.15;99043.66;5092243;28;20539;-76
2021/08/03 09:13:24;;;;;;;8.40;2.95;;;;;;;27.95;35.77;99047.53;5074495;28;20044;-74
2021/08/03 09:15:59;;;;;;;5.15;1.73;;;;;;;27.54;36.29;99050.41;5093085;28;20075;-78
2021/08/03 09:18:39;;;;;;;5.32;2.08;;;;;;;27.37;36.70;99044.94;5075213;28;20051;-74
2021/08/03 09:21:05;;;;;;;5.03;1.60;;;;;;;27.00;37.43;99050.75;5074829;28;20069;-77
2021/08/03 09:23:42;;;;;;;6.70;5.40;;;;;;;26.50;38.58;99069.25;5092450;28;20047;-75
2021/08/03 09:26:08;;;;;;;6.43;1.73;;;;;;;26.24;39.09;99063.25;5092252;28;20089;-76
2021/08/03 09:28:34;;;;;;;7.53;2.05;;;;;;;26.93;38.54;99065.28;5092814;28;20039;-77
2021/08/03 09:31:04;;;;;;;4.63;1.75;;;;;;;27.18;36.94;99056.00;5092182;28;20519;-77
2021/08/03 09:33:30;;;;;;;5.35;2.20;;;;;;;28.88;34.88;99047.75;5092309;28;20043;-76
2021/08/03 09:35:56;;;;;;;3.33;1.60;;;;;;;30.09;32.60;99052.16;5092253;28;20066;-77
2021/08/03 09:38:22;;;;;;;3.28;1.48;;;;;;;29.72;31.85;99061.16;5092495;28;20044;-76
2021/08/03 09:40:50;;;;;;;4.30;1.70;;;;;;;28.82;33.36;99062.38;5092486;28;20036;-74
2021/08/03 09:43:25;;;;;;;6.63;2.20;;;;;;;28.99;33.75;99070.47;5093080;28;20440;-75
2021/08/03 09:45:50;;;;;;;5.32;2.28;;;;;;;30.58;31.81;99064.75;5092054;28;20038;-75
2021/08/03 09:48:18;;;;;;;3.47;2.17;;;;;;;31.38;29.37;99063.66;5092101;28;20444;-77
2021/08/03 09:50:55;;;;;;;12.90;6.30;;;;;;;31.64;29.08;99065.59;5092063;28;20040;-79
2021/08/03 09:53:42;;;;;;;4.07;2.20;;;;;;;31.82;28.80;99058.78;5091634;28;20123;-77
2021/08/03 09:56:32;;;;;;;5.25;2.85;;;;;;;31.59;28.78;99071.84;5092246;28;20040;-79
2021/08/03 09:59:00;;;;;;;3.95;1.80;;;;;;;30.49;30.80;99078.09;5091343;28;20047;-73
2021/08/03 10:01:36;;;;;;;4.18;1.80;;;;;;;31.15;29.59;99078.63;5090035;28;20032;-75
2021/08/03 10:04:06;;;;;;;6.57;2.00;;;;;;;31.88;29.25;99074.09;5090833;28;20044;-76
2021/08/03 10:06:33;;;;;;;4.72;2.15;;;;;;;31.94;28.66;99075.72;5091210;28;20040;-75
2021/08/03 10:09:00;;;;;;;5.53;1.83;;;;;;;32.67;27.35;99074.47;5091534;28;20370;-75
2021/08/03 10:11:26;;;;;;;6.18;1.98;;;;;;;33.48;25.95;99081.78;5092184;28;20517;-76
2021/08/03 10:13:54;;;;;;;6.40;1.73;;;;;;;32.25;26.12;99067.47;5092010;28;20082;-74
2021/08/03 10:16:20;;;;;;;;;;;;;;;31.58;27.51;99064.78;5074002;28;20044;-75
2021/08/03 10:18:51;;;;;;;29.77;13.32;;;;;;;30.90;28.63;99071.16;5073772;28;19916;-76
2021/08/03 10:21:29;;;;;;;11.02;4.75;;;;;;;31.75;27.63;99076.28;5091702;28;20469;-75
2021/08/03 10:24:09;;;;;;;6.03;3.08;;;;;;;31.04;28.47;99072.31;5091654;28;20044;-75
2021/08/03 10:26:35;;;;;;;3.72;2.00;;;;;;;30.88;29.56;99082.34;5073985;28;20040;-76
2021/08/03 10:29:24;;;;;;;6.13;2.28;;;;;;;29.77;30.61;99083.00;5073687;28;20066;-76
2021/08/03 10:31:50;;;;;;;3.95;1.85;;;;;;;29.40;30.31;99078.28;5091460;28;20043;-73
2021/08/03 10:34:44;;;;;;;4.45;1.92;;;;;;;30.44;29.17;99075.25;5091477;28;20052;-75
2021/08/03 10:37:11;;;;;;;3.90;1.90;;;;;;;31.43;27.87;99069.13;5091322;28;20032;-76
2021/08/03 10:39:56;;;;;;;5.32;2.08;;;;;;;32.07;25.70;99077.88;5091685;28;20051;-75
2021/08/03 10:42:24;;;;;;;4.00;1.83;;;;;;;31.79;26.30;99087.50;5091441;28;20437;-75
2021/08/03 10:44:53;;;;;;;5.70;2.60;;;;;;;30.64;27.67;99079.22;5091507;28;20056;-76
2021/08/03 10:47:34;;;;;;;6.05;2.13;;;;;;;30.73;28.60;99076.81;5091785;28;20593;-74
2021/08/03 10:50:10;;;;;;;4.32;2.45;;;;;;;29.72;29.63;99079.38;5094193;28;20047;-74
2021/08/03 10:52:46;;;;;;;4.70;2.38;;;;;;;28.17;31.77;99080.25;5077699;28;20052;-76
2021/08/03 10:56:07;;;;;;;6.13;3.05;;;;;;;27.48;33.12;99081.25;5095164;28;20040;-74
2021/08/03 10:58:33;;;;;;;5.78;3.30;;;;;;;27.40;33.49;99086.03;4993182;28;20049;-74
2021/08/03 11:01:02;;;;;;;6.35;2.95;;;;;;;27.12;33.63;99076.78;4977387;28;20054;-76
2021/08/03 11:03:34;;;;;;;7.90;2.45;;;;;;;27.02;33.73;99086.63;4993526;28;20038;-75
2021/08/03 11:06:06;;;;;;;10.43;3.92;;;;;;;26.71;34.38;99099.53;4993168;28;20508;-75
2021/08/03 11:08:49;;;;;;;37.15;16.58;;;;;;;26.50;34.72;99082.81;4993004;28;20088;-75
2021/08/03 11:11:18;;;;;;;8.00;3.38;;;;;;;26.76;34.29;99084.22;4992766;28;20058;-74
2021/08/03 11:13:52;;;;;;;4.55;2.80;;;;;;;27.16;33.90;99074.41;4992990;28;20050;-76
2021/08/03 11:16:23;;;;;;;5.85;2.40;;;;;;;27.38;34.06;99081.88;4992819;28;20476;-76
2021/08/03 11:18:54;;;;;;;6.22;3.10;;;;;;;27.41;33.99;99076.00;4992352;28;20464;-74
2021/08/03 11:21:22;;;;;;;16.23;7.50;;;;;;;27.42;34.05;99077.63;4992466;28;20050;-75
2021/08/03 11:23:59;;;;;;;7.13;2.53;;;;;;;27.66;34.05;99078.31;4992414;28;20057;-75
2021/08/03 11:26:28;;;;;;;5.78;2.60;;;;;;;27.98;33.41;99076.94;4992982;28;20433;-74
2021/08/03 11:29:12;;;;;;;6.35;2.40;;;;;;;27.98;34.15;99076.94;4992427;28;20121;-77
2021/08/03 11:32:00;;;;;;;7.43;2.60;;;;;;;27.80;33.47;99084.25;5003597;28;20087;-74
2021/08/03 11:34:39;;;;;;;8.68;2.67;;;;;;;27.49;34.13;99082.91;5094511;28;20036;-75
2021/08/03 11:37:11;;;;;;;5.88;2.50;;;;;;;27.22;34.24;99081.59;5093922;28;20085;-76
2021/08/03 11:40:04;;;;;;;8.40;3.35;;;;;;;27.21;34.11;99082.66;5094259;28;20653;-74
2021/08/03 11:42:36;;;;;;;7.30;3.17;;;;;;;27.24;34.13;99082.19;5090135;28;20060;-74
2021/08/03 11:45:16;;;;;;;9.32;3.20;;;;;;;27.36;34.46;99084.00;5094928;28;20040;-74
2021/08/03 11:47:50;;;;;;;11.43;4.25;;;;;;;27.03;34.09;99088.25;5094279;28;20484;-73